createdAt,value
2023-04-26T00:02:24.445Z,1.83
2023-04-26T00:05:28.337Z,1.53
2023-04-26T00:08:31.558Z,1.60
2023-04-26T00:11:35.913Z,1.70
2023-04-26T00:14:39.791Z,2.03
2023-04-26T00:17:42.952Z,1.80
2023-04-26T00:20:46.317Z,1.30
2023-04-26T00:23:49.573Z,1.70
2023-04-26T00:26:56.011Z,1.40
2023-04-26T00:29:58.949Z,1.35
2023-04-26T00:33:01.962Z,1.67
2023-04-26T00:36:05.280Z,1.45
2023-04-26T00:39:08.643Z,1.67
2023-04-26T00:42:12.918Z,1.40
2023-04-26T00:45:15.921Z,1.40
2023-04-26T00:48:19.115Z,2.05
2023-04-26T00:51:22.487Z,1.80
2023-04-26T00:54:26.090Z,1.40
2023-04-26T00:57:30.479Z,0.85
2023-04-26T01:00:33.485Z,1.60
2023-04-26T01:03:37.032Z,1.17
2023-04-26T01:06:41.524Z,1.63
2023-04-26T01:09:45.195Z,1.90
2023-04-26T01:12:49.748Z,2.58
2023-04-26T01:15:53.378Z,1.42
2023-04-26T01:18:57.034Z,1.02
2023-04-26T01:22:00.031Z,1.60
2023-04-26T01:25:08.868Z,1.40
2023-04-26T01:28:12.126Z,1.48
2023-04-26T01:31:15.141Z,1.90
2023-04-26T01:35:08.131Z,1.48
2023-04-26T01:38:11.096Z,1.90
2023-04-26T01:41:14.354Z,1.73
2023-04-26T01:44:17.664Z,1.30
2023-04-26T01:47:20.788Z,1.67
2023-04-26T01:50:25.283Z,0.98
2023-04-26T01:53:28.202Z,1.70
2023-04-26T01:56:31.457Z,1.33
2023-04-26T01:59:34.428Z,1.47
2023-04-26T02:02:37.841Z,1.65
2023-04-26T02:05:42.190Z,1.87
2023-04-26T02:08:46.199Z,1.70
2023-04-26T02:11:49.411Z,1.73
2023-04-26T02:17:56.519Z,1.02
2023-04-26T02:21:00.880Z,1.30
2023-04-26T02:24:04.034Z,0.93
2023-04-26T02:27:07.711Z,1.00
2023-04-26T02:30:11.684Z,1.10
2023-04-26T02:33:14.702Z,0.73
2023-04-26T02:36:18.956Z,0.98
2023-04-26T02:42:25.654Z,1.50
2023-04-26T02:45:28.732Z,1.45
2023-04-26T02:48:31.769Z,1.50
2023-04-26T02:51:36.033Z,1.98
2023-04-26T02:57:41.850Z,1.38
2023-04-26T03:00:47.431Z,1.15
2023-04-26T03:03:50.583Z,1.10
2023-04-26T03:06:54.930Z,1.80
2023-04-26T03:09:57.947Z,1.30
2023-04-26T03:13:00.943Z,1.20
2023-04-26T03:16:04.011Z,1.55
2023-04-26T03:19:06.991Z,1.63
2023-04-26T03:22:11.357Z,1.02
2023-04-26T03:25:15.674Z,1.58
2023-04-26T03:28:18.866Z,1.13
2023-04-26T03:31:44.218Z,1.23
2023-04-26T03:34:48.619Z,1.88
2023-04-26T03:37:53.423Z,1.20
2023-04-26T03:40:56.642Z,1.13
2023-04-26T03:43:59.710Z,1.55
2023-04-26T03:47:05.169Z,1.33
2023-04-26T03:50:09.701Z,1.30
2023-04-26T03:53:12.816Z,1.33
2023-04-26T03:56:15.987Z,1.33
2023-04-26T03:59:19.068Z,1.20
2023-04-26T04:02:23.865Z,1.60
2023-04-26T04:05:27.604Z,1.75
2023-04-26T04:08:30.749Z,1.35
2023-04-26T04:11:34.613Z,1.70
2023-04-26T04:14:37.818Z,1.88
2023-04-26T04:17:42.195Z,0.93
2023-04-26T04:20:45.793Z,1.20
2023-04-26T04:23:48.920Z,1.00
2023-04-26T04:26:52.548Z,0.98
2023-04-26T04:29:55.540Z,1.25
2023-04-26T04:33:00.248Z,1.17
2023-04-26T04:36:03.296Z,1.15
2023-04-26T04:39:12.293Z,1.48
2023-04-26T04:42:15.291Z,1.23
2023-04-26T04:45:18.919Z,1.13
2023-04-26T04:48:23.455Z,1.55
2023-04-26T04:51:26.649Z,1.30
2023-04-26T04:54:29.874Z,1.40
2023-04-26T04:57:33.614Z,1.10
2023-04-26T05:00:37.986Z,1.08
2023-04-26T05:03:43.043Z,0.95
2023-04-26T05:06:46.548Z,1.40
2023-04-26T05:09:49.445Z,1.13
2023-04-26T05:12:52.680Z,1.40
2023-04-26T05:15:55.987Z,1.08
2023-04-26T05:19:00.329Z,1.03
2023-04-26T05:22:03.911Z,1.60
2023-04-26T05:25:08.396Z,1.67
2023-04-26T05:28:12.712Z,1.02
2023-04-26T05:31:15.825Z,1.55
2023-04-26T05:34:20.346Z,1.02
2023-04-26T05:37:23.682Z,1.08
2023-04-26T05:40:26.719Z,1.70
2023-04-26T05:43:30.189Z,1.73
2023-04-26T05:46:33.303Z,1.53
2023-04-26T05:49:37.944Z,1.15
2023-04-26T05:52:41.072Z,1.60
2023-04-26T05:55:44.393Z,1.33
2023-04-26T05:58:47.649Z,1.57
2023-04-26T06:01:50.836Z,1.60
2023-04-26T06:04:55.982Z,2.30
2023-04-26T06:07:59.320Z,1.75
2023-04-26T06:11:26.859Z,1.33
2023-04-26T06:14:30.942Z,1.85
2023-04-26T06:17:34.193Z,1.45
2023-04-26T06:20:37.186Z,1.25
2023-04-26T06:23:40.165Z,1.20
2023-04-26T06:26:44.411Z,1.20
2023-04-26T06:32:50.940Z,1.88
2023-04-26T06:35:53.968Z,1.67
2023-04-26T06:38:56.936Z,1.50
2023-04-26T06:42:02.289Z,1.52
2023-04-26T06:45:06.548Z,1.20
2023-04-26T06:51:12.485Z,1.50
2023-04-26T06:54:15.978Z,1.08
2023-04-26T06:57:20.367Z,1.20
2023-04-26T07:00:23.611Z,1.38
2023-04-26T07:03:26.986Z,1.30
2023-04-26T07:06:31.123Z,1.42
2023-04-26T07:09:34.428Z,1.50
2023-04-26T07:12:38.881Z,1.23
2023-04-26T07:15:42.184Z,1.02
2023-04-26T07:18:45.222Z,0.80
2023-04-26T07:21:48.478Z,1.13
2023-04-26T07:24:51.445Z,1.10
2023-04-26T07:27:55.804Z,1.40
2023-04-26T07:30:59.657Z,1.42
2023-04-26T07:34:02.666Z,1.55
2023-04-26T07:37:06.072Z,1.00
2023-04-26T07:40:10.895Z,1.80
2023-04-26T07:43:16.436Z,1.17
2023-04-26T07:46:19.743Z,0.90
2023-04-26T07:49:22.775Z,1.20
2023-04-26T07:52:25.820Z,1.10
2023-04-26T07:55:53.370Z,1.13
2023-04-26T07:58:56.465Z,1.10
2023-04-26T08:01:59.687Z,1.40
2023-04-26T08:05:03.139Z,1.67
2023-04-26T08:08:06.659Z,1.13
2023-04-26T08:11:11.548Z,1.30
2023-04-26T08:14:14.810Z,1.30
2023-04-26T08:17:18.412Z,0.88
2023-04-26T08:20:21.626Z,1.25
2023-04-26T08:23:25.114Z,1.02
2023-04-26T08:26:29.605Z,0.97
2023-04-26T08:29:32.675Z,0.80
2023-04-26T08:32:36.496Z,1.70
2023-04-26T08:35:39.420Z,1.27
2023-04-26T08:38:42.493Z,1.42
2023-04-26T08:41:53.899Z,1.35
2023-04-26T08:45:01.923Z,0.80
2023-04-26T08:48:09.310Z,0.85
2023-04-26T08:51:14.839Z,1.10
2023-04-26T08:54:19.154Z,0.80
2023-04-26T09:00:27.414Z,0.93
2023-04-26T09:03:32.045Z,0.95
2023-04-26T09:06:35.916Z,0.95
2023-04-26T09:09:43.625Z,1.25
2023-04-26T09:12:48.197Z,1.33
2023-04-26T09:15:51.770Z,1.15
2023-04-26T09:18:57.401Z,1.17
2023-04-26T09:22:00.635Z,0.80
2023-04-26T09:25:05.728Z,0.93
2023-04-26T09:28:22.762Z,1.00
2023-04-26T09:31:38.781Z,1.13
2023-04-26T09:34:46.651Z,0.80
2023-04-26T09:37:59.365Z,0.88
2023-04-26T09:41:04.383Z,1.00
2023-04-26T09:44:22.324Z,1.08
2023-04-26T09:47:25.669Z,0.80
2023-04-26T09:50:30.244Z,1.10
2023-04-26T09:53:36.996Z,0.75
2023-04-26T09:56:40.121Z,0.73
2023-04-26T09:59:46.893Z,0.50
2023-04-26T10:02:50.639Z,0.80
2023-04-26T10:05:54.797Z,0.82
2023-04-26T10:08:58.220Z,0.90
2023-04-26T10:12:01.948Z,0.93
2023-04-26T10:15:09.218Z,0.70
2023-04-26T10:18:12.276Z,0.85
2023-04-26T10:21:20.904Z,1.10
2023-04-26T10:24:24.346Z,0.70
2023-04-26T10:27:48.764Z,0.60
2023-04-26T10:31:01.172Z,0.60
2023-04-26T10:34:19.900Z,1.33
2023-04-26T10:37:23.193Z,1.00
2023-04-26T10:40:28.488Z,1.07
2023-04-26T10:43:32.756Z,0.70
2023-04-26T10:49:48.561Z,0.93
2023-04-26T10:53:07.048Z,1.13
2023-04-26T10:56:10.002Z,0.88
2023-04-26T10:59:33.331Z,0.82
2023-04-26T11:02:53.822Z,0.93
2023-04-26T11:05:56.992Z,1.08
2023-04-26T11:09:01.144Z,1.08
2023-04-26T11:12:06.256Z,0.77
2023-04-26T11:15:10.360Z,0.80
2023-04-26T11:18:14.655Z,0.88
2023-04-26T11:21:19.555Z,0.80
2023-04-26T11:24:26.760Z,0.88
2023-04-26T11:27:32.455Z,0.70
2023-04-26T11:30:35.534Z,1.02
2023-04-26T11:33:42.453Z,0.75
2023-04-26T11:36:46.519Z,0.88
2023-04-26T11:39:51.238Z,0.65
2023-04-26T11:42:54.447Z,0.75
2023-04-26T11:46:00.095Z,0.50
2023-04-26T11:49:04.853Z,1.05
2023-04-26T11:52:09.821Z,0.82
2023-04-26T11:55:12.807Z,1.10
2023-04-26T11:58:16.481Z,0.75
2023-04-26T12:01:23.705Z,0.85
2023-04-26T12:04:30.893Z,0.70
2023-04-26T12:07:37.106Z,0.70
2023-04-26T12:10:40.120Z,0.52
2023-04-26T12:13:43.508Z,0.55
2023-04-26T12:16:47.785Z,0.10
2023-04-26T12:19:52.541Z,0.70
2023-04-26T12:23:04.640Z,0.65
2023-04-26T12:26:10.913Z,0.50
2023-04-26T12:29:14.206Z,0.55
2023-04-26T12:32:17.307Z,1.03
2023-04-26T12:35:21.649Z,0.40
2023-04-26T12:38:24.672Z,0.73
2023-04-26T12:41:27.973Z,0.77
2023-04-26T12:44:31.117Z,0.50
2023-04-26T12:47:34.344Z,0.77
2023-04-26T12:50:38.694Z,0.68
2023-04-26T12:53:41.867Z,0.40
2023-04-26T12:56:45.910Z,0.88
2023-04-26T12:59:49.119Z,0.45
2023-04-26T13:02:52.306Z,0.40
2023-04-26T13:05:57.061Z,0.50
2023-04-26T13:09:00.008Z,0.60
2023-04-26T13:12:27.303Z,0.43
2023-04-26T13:15:30.376Z,0.30
2023-04-26T13:18:33.625Z,0.60
2023-04-26T13:21:36.629Z,0.80
2023-04-26T13:24:39.702Z,0.60
2023-04-26T13:27:44.529Z,0.70
2023-04-26T13:30:47.608Z,1.10
2023-04-26T13:33:51.178Z,0.77
2023-04-26T13:36:54.402Z,0.55
2023-04-26T13:39:58.337Z,0.63
2023-04-26T13:43:02.911Z,0.50
2023-04-26T13:46:06.254Z,0.70
2023-04-26T13:49:10.341Z,0.63
2023-04-26T13:52:13.272Z,0.68
2023-04-26T13:55:16.271Z,0.50
2023-04-26T13:58:21.052Z,0.68
2023-04-26T14:01:24.580Z,0.63
2023-04-26T14:04:27.950Z,1.42
2023-04-26T14:07:33.248Z,0.60
2023-04-26T14:10:36.235Z,0.95
2023-04-26T14:13:40.810Z,0.65
2023-04-26T14:16:44.101Z,0.52
2023-04-26T14:19:47.493Z,0.43
2023-04-26T14:22:51.106Z,0.90
2023-04-26T14:25:54.771Z,0.70
2023-04-26T14:28:59.275Z,0.55
2023-04-26T14:32:02.983Z,0.77
2023-04-26T14:35:06.696Z,0.90
2023-04-26T14:38:09.893Z,0.52
2023-04-26T14:41:15.363Z,0.85
2023-04-26T14:44:19.604Z,0.65
2023-04-26T14:50:26.678Z,1.13
2023-04-26T14:53:29.571Z,0.63
2023-04-26T14:56:35.351Z,0.63
2023-04-26T14:59:39.634Z,0.60
2023-04-26T15:02:42.772Z,0.88
2023-04-26T15:05:45.957Z,0.70
2023-04-26T15:09:13.114Z,0.93
2023-04-26T15:12:16.111Z,0.40
2023-04-26T15:15:19.288Z,0.80
2023-04-26T15:18:22.523Z,0.50
2023-04-26T15:21:25.642Z,0.57
2023-04-26T15:24:29.928Z,0.40
2023-04-26T15:30:37.838Z,0.77
2023-04-26T15:33:40.779Z,0.82
2023-04-26T15:36:43.912Z,0.40
2023-04-26T15:39:48.326Z,0.28
2023-04-26T15:42:51.856Z,0.95
2023-04-26T15:45:55.083Z,0.57
2023-04-26T15:48:58.057Z,0.70
2023-04-26T15:52:00.973Z,0.85
2023-04-26T15:55:07.233Z,0.70
2023-04-26T15:58:10.129Z,0.55
2023-04-26T16:01:13.276Z,0.40
2023-04-26T16:04:16.301Z,0.40
2023-04-26T16:07:19.411Z,0.77
2023-04-26T16:10:24.274Z,0.80
2023-04-26T16:13:27.229Z,0.60
2023-04-26T16:16:30.878Z,0.82
2023-04-26T16:19:33.896Z,0.68
2023-04-26T16:22:37.197Z,0.50
2023-04-26T16:25:41.794Z,0.30
2023-04-26T16:28:44.766Z,0.60
2023-04-26T16:31:47.779Z,0.60
2023-04-26T16:34:51.617Z,0.60
2023-04-26T16:37:54.547Z,0.50
2023-04-26T16:41:01.427Z,0.80
2023-04-26T16:44:04.380Z,0.32
2023-04-26T16:47:07.281Z,1.10
2023-04-26T16:51:49.351Z,0.65
2023-04-26T16:54:52.472Z,0.43
2023-04-26T16:57:55.474Z,0.73
2023-04-26T17:00:58.403Z,0.60
2023-04-26T17:04:02.042Z,0.55
2023-04-26T17:07:06.392Z,0.75
2023-04-26T17:13:13.548Z,0.45
2023-04-26T17:16:17.018Z,0.45
2023-04-26T17:19:20.310Z,0.70
2023-04-26T17:22:24.527Z,0.50
2023-04-26T17:28:31.197Z,0.50
2023-04-26T17:31:34.249Z,0.50
2023-04-26T17:34:38.639Z,0.50
2023-04-26T17:37:43.137Z,0.45
2023-04-26T17:40:46.408Z,0.47
2023-04-26T17:43:49.531Z,0.50
2023-04-26T17:46:52.800Z,0.82
2023-04-26T17:49:55.752Z,0.50
2023-04-26T17:53:00.666Z,0.43
2023-04-26T17:56:07.201Z,1.00
2023-04-26T17:59:10.140Z,0.52
2023-04-26T18:02:13.299Z,0.25
2023-04-26T18:08:37.676Z,0.60
2023-04-26T18:11:40.685Z,0.32
2023-04-26T18:14:45.340Z,0.65
2023-04-26T18:17:48.433Z,0.50
2023-04-26T18:20:51.416Z,0.70
2023-04-26T18:23:56.160Z,0.60
2023-04-26T18:26:59.566Z,0.43
2023-04-26T18:30:02.797Z,0.60
2023-04-26T18:33:06.315Z,0.40
2023-04-26T18:36:09.683Z,0.60
2023-04-26T18:39:14.402Z,0.87
2023-04-26T18:42:17.486Z,0.60
2023-04-26T18:45:20.978Z,0.68
2023-04-26T18:48:23.902Z,0.60
2023-04-26T18:51:26.871Z,0.85
2023-04-26T18:54:33.018Z,0.70
2023-04-26T18:57:36.097Z,0.47
2023-04-26T19:00:39.019Z,0.82
2023-04-26T19:03:42.524Z,0.50
2023-04-26T19:06:45.649Z,0.60
2023-04-26T19:09:54.114Z,0.50
2023-04-26T19:12:57.896Z,0.90
2023-04-26T19:16:01.849Z,0.70
2023-04-26T19:19:05.554Z,0.80
2023-04-26T19:22:08.908Z,1.05
2023-04-26T19:25:13.951Z,0.70
2023-04-26T19:28:16.968Z,0.90
2023-04-26T19:31:20.047Z,0.73
2023-04-26T19:34:23.250Z,1.08
2023-04-26T19:37:26.273Z,0.75
2023-04-26T19:40:31.329Z,0.65
2023-04-26T19:43:34.343Z,0.47
2023-04-26T19:46:37.815Z,0.82
2023-04-26T19:49:41.162Z,0.98
2023-04-26T19:52:44.420Z,0.60
2023-04-26T19:55:49.145Z,0.57
2023-04-26T19:58:52.160Z,0.80
2023-04-26T20:01:55.520Z,0.70
2023-04-26T20:04:58.483Z,0.70
2023-04-26T20:08:01.719Z,0.85
2023-04-26T20:11:06.814Z,0.80
2023-04-26T20:14:09.891Z,0.55
2023-04-26T20:17:13.058Z,0.70
2023-04-26T20:20:15.948Z,0.82
2023-04-26T20:23:19.166Z,0.77
2023-04-26T20:26:23.464Z,0.95
2023-04-26T20:29:26.527Z,0.70
2023-04-26T20:32:29.481Z,0.60
2023-04-26T20:35:32.850Z,0.73
2023-04-26T20:38:35.934Z,0.80
2023-04-26T20:41:40.439Z,0.80
2023-04-26T20:44:43.447Z,0.82
2023-04-26T20:47:46.953Z,1.45
2023-04-26T20:50:50.230Z,1.13
2023-04-26T20:53:53.222Z,1.20
2023-04-26T20:56:57.801Z,0.70
2023-04-26T21:00:00.833Z,1.05
2023-04-26T21:03:04.184Z,1.10
2023-04-26T21:06:07.355Z,0.93
2023-04-26T21:09:10.489Z,1.08
2023-04-26T21:12:14.990Z,1.20
2023-04-26T21:18:20.930Z,0.90
2023-04-26T21:21:25.881Z,1.10
2023-04-26T21:24:30.977Z,1.10
2023-04-26T21:27:35.653Z,1.20
2023-04-26T21:30:38.926Z,0.88
2023-04-26T21:33:42.060Z,1.23
2023-04-26T21:36:45.208Z,1.02
2023-04-26T21:39:48.175Z,1.38
2023-04-26T21:43:04.078Z,1.08
2023-04-26T21:46:09.068Z,1.10
2023-04-26T21:49:34.569Z,0.63
2023-04-26T21:52:38.055Z,1.20
2023-04-26T21:55:40.958Z,0.90
2023-04-26T21:58:43.939Z,1.02
2023-04-26T22:01:47.048Z,1.35
2023-04-26T22:04:51.435Z,1.55
2023-04-26T22:07:54.606Z,1.10
2023-04-26T22:10:57.645Z,1.10
2023-04-26T22:14:00.701Z,1.13
2023-04-26T22:17:03.888Z,0.95
2023-04-26T22:20:09.894Z,0.90
2023-04-26T22:23:13.181Z,1.05
2023-04-26T22:26:16.385Z,1.33
2023-04-26T22:29:19.569Z,0.63
2023-04-26T22:32:22.580Z,0.85
2023-04-26T22:35:29.380Z,1.20
2023-04-26T22:38:32.622Z,1.02
2023-04-26T22:41:35.530Z,1.00
2023-04-26T22:44:38.777Z,0.95
2023-04-26T22:47:42.165Z,1.03
2023-04-26T22:51:24.487Z,1.10
2023-04-26T22:54:27.689Z,1.45
2023-04-26T22:57:31.899Z,1.00
2023-04-26T23:03:38.342Z,1.00
2023-04-26T23:06:43.569Z,0.98
2023-04-26T23:09:47.683Z,1.10
2023-04-26T23:15:53.875Z,0.82
2023-04-26T23:18:57.015Z,0.77
2023-04-26T23:22:01.487Z,1.23
2023-04-26T23:25:04.676Z,1.33
2023-04-26T23:28:07.889Z,1.17
2023-04-26T23:31:10.980Z,1.57
2023-04-26T23:34:14.000Z,1.05
2023-04-26T23:37:18.397Z,1.15
2023-04-26T23:40:21.450Z,1.05
2023-04-26T23:43:25.393Z,0.80
2023-04-26T23:46:28.380Z,0.93
2023-04-26T23:49:31.423Z,1.00
2023-04-26T23:52:36.290Z,1.25
2023-04-26T23:55:39.692Z,0.95
2023-04-26T23:58:42.698Z,0.87
